createdAt,value
2018-02-20T00:00:15.041Z,-0.50
2018-02-20T00:02:42.588Z,-0.50
2018-02-20T00:05:10.163Z,-0.50
2018-02-20T00:07:37.715Z,-0.60
2018-02-20T00:10:05.262Z,-0.50
2018-02-20T00:12:32.835Z,-0.50
2018-02-20T00:15:00.388Z,-0.50
2018-02-20T00:17:27.951Z,-0.50
2018-02-20T00:19:55.526Z,-0.50
2018-02-20T00:22:23.079Z,-0.50
2018-02-20T00:24:50.628Z,-0.50
2018-02-20T00:27:18.215Z,-0.50
2018-02-20T00:29:45.779Z,-0.50
2018-02-20T00:32:14.094Z,-0.50
2018-02-20T00:34:42.523Z,-0.50
2018-02-20T00:37:10.076Z,-0.50
2018-02-20T00:39:37.632Z,-0.50
2018-02-20T00:42:05.206Z,-0.50
2018-02-20T00:44:32.760Z,-0.50
2018-02-20T00:47:00.314Z,-0.40
2018-02-20T00:49:27.885Z,-0.40
2018-02-20T00:51:55.462Z,-0.40
2018-02-20T00:54:23.020Z,-0.40
2018-02-20T00:56:50.590Z,-0.40
2018-02-20T00:59:18.148Z,-0.50
2018-02-20T01:01:45.735Z,-0.50
2018-02-20T01:04:14.056Z,-0.50
2018-02-20T01:06:41.649Z,-0.60
2018-02-20T01:09:09.270Z,-0.60
2018-02-20T01:11:36.817Z,-0.50
2018-02-20T01:14:04.407Z,-0.50
2018-02-20T01:16:31.967Z,-0.50
2018-02-20T01:18:59.514Z,-0.50
2018-02-20T01:21:27.079Z,-0.50
2018-02-20T01:23:54.632Z,-0.50
2018-02-20T01:26:22.219Z,-0.50
2018-02-20T01:28:49.763Z,-0.60
2018-02-20T01:31:17.320Z,-0.60
2018-02-20T01:33:44.915Z,-0.60
2018-02-20T01:36:13.225Z,-0.60
2018-02-20T01:38:41.565Z,-0.70
2018-02-20T01:41:09.133Z,-0.70
2018-02-20T01:43:36.687Z,-0.70
2018-02-20T01:46:04.275Z,-0.70
2018-02-20T01:48:31.839Z,-0.70
2018-02-20T01:51:08.477Z,-0.60
2018-02-20T01:53:36.038Z,-0.60
2018-02-20T01:56:05.232Z,-0.60
2018-02-20T01:58:33.585Z,-0.70
2018-02-20T02:01:01.435Z,-0.60
2018-02-20T02:03:29.031Z,-0.60
2018-02-20T02:05:57.359Z,-0.60
2018-02-20T02:08:25.683Z,-0.60
2018-02-20T02:10:53.254Z,-0.60
2018-02-20T02:13:20.807Z,-0.70
2018-02-20T02:15:48.383Z,-0.70
2018-02-20T02:18:15.943Z,-0.70
2018-02-20T02:20:43.524Z,-0.70
2018-02-20T02:23:11.095Z,-0.70
2018-02-20T02:25:39.417Z,-0.60
2018-02-20T02:28:07.016Z,-0.70
2018-02-20T02:30:34.565Z,-0.60
2018-02-20T02:33:02.124Z,-0.60
2018-02-20T02:35:29.763Z,-0.60
2018-02-20T02:37:57.311Z,-0.60
2018-02-20T02:40:24.890Z,-0.60
2018-02-20T02:42:52.442Z,-0.60
2018-02-20T02:45:20.015Z,-0.60
2018-02-20T02:47:47.590Z,-0.60
2018-02-20T02:50:15.143Z,-0.60
2018-02-20T02:52:42.722Z,-0.60
2018-02-20T02:55:10.280Z,-0.60
2018-02-20T02:57:37.818Z,-0.60
2018-02-20T03:00:05.404Z,-0.70
2018-02-20T03:02:32.956Z,-0.70
2018-02-20T03:05:00.550Z,-0.60
2018-02-20T03:07:28.143Z,-0.60
2018-02-20T03:09:55.701Z,-0.60
2018-02-20T03:12:23.283Z,-0.60
2018-02-20T03:14:50.843Z,-0.60
2018-02-20T03:17:19.204Z,-0.60
2018-02-20T03:19:46.750Z,-0.60
2018-02-20T03:22:14.306Z,-0.60
2018-02-20T03:24:41.886Z,-0.60
2018-02-20T03:27:09.436Z,-0.70
2018-02-20T03:29:37.048Z,-0.70
2018-02-20T03:32:04.612Z,-0.70
2018-02-20T03:34:32.946Z,-0.70
2018-02-20T03:37:00.561Z,-0.70
2018-02-20T03:39:28.887Z,-0.70
2018-02-20T03:41:57.238Z,-0.80
2018-02-20T03:44:24.801Z,-0.80
2018-02-20T03:46:52.349Z,-0.80
2018-02-20T03:49:20.690Z,-0.80
2018-02-20T03:51:48.256Z,-0.80
2018-02-20T03:54:15.842Z,-0.80
2018-02-20T03:56:44.156Z,-0.80
2018-02-20T03:59:11.724Z,-0.80
2018-02-20T04:01:39.304Z,-0.80
2018-02-20T04:04:06.881Z,-0.80
2018-02-20T04:06:34.455Z,-0.70
2018-02-20T04:09:02.779Z,-0.80
2018-02-20T04:11:30.336Z,-0.80
2018-02-20T04:13:57.908Z,-0.80
2018-02-20T04:16:25.482Z,-0.80
2018-02-20T04:18:53.068Z,-0.80
2018-02-20T04:21:20.627Z,-0.80
2018-02-20T04:23:48.191Z,-0.90
2018-02-20T04:26:16.556Z,-0.80
2018-02-20T04:28:44.127Z,-0.80
2018-02-20T04:31:13.268Z,-0.80
2018-02-20T04:33:40.832Z,-0.80
2018-02-20T04:36:08.398Z,-0.80
2018-02-20T04:38:35.980Z,-0.80
2018-02-20T04:41:03.535Z,-0.80
2018-02-20T04:43:31.110Z,-0.80
2018-02-20T04:45:58.671Z,-0.90
2018-02-20T04:48:26.231Z,-0.90
2018-02-20T04:50:53.819Z,-0.90
2018-02-20T04:53:22.143Z,-0.90
2018-02-20T04:55:49.723Z,-0.90
2018-02-20T04:58:17.267Z,-0.90
2018-02-20T05:00:44.831Z,-0.90
2018-02-20T05:03:12.408Z,-0.90
2018-02-20T05:05:39.959Z,-0.90
2018-02-20T05:08:07.539Z,-0.90
2018-02-20T05:10:35.094Z,-0.90
2018-02-20T05:13:02.668Z,-1.00
2018-02-20T05:15:31.015Z,-1.00
2018-02-20T05:17:58.568Z,-1.00
2018-02-20T05:20:26.145Z,-0.90
2018-02-20T05:22:53.700Z,-0.90
2018-02-20T05:25:21.264Z,-0.90
2018-02-20T05:27:48.853Z,-0.90
2018-02-20T05:30:17.215Z,-0.90
2018-02-20T05:32:44.806Z,-0.90
2018-02-20T05:35:13.162Z,-0.90
2018-02-20T05:37:40.708Z,-0.90
2018-02-20T05:40:08.292Z,-0.90
2018-02-20T05:42:35.849Z,-0.90
2018-02-20T05:45:03.426Z,-0.90
2018-02-20T05:47:32.011Z,-0.90
2018-02-20T05:50:00.334Z,-0.90
2018-02-20T05:52:27.905Z,-0.90
2018-02-20T05:54:55.467Z,-0.90
2018-02-20T05:57:23.073Z,-0.90
2018-02-20T05:59:50.642Z,-0.90
2018-02-20T06:02:18.211Z,-0.90
2018-02-20T06:04:45.852Z,-0.90
2018-02-20T06:07:14.172Z,-0.90
2018-02-20T06:09:41.753Z,-0.90
2018-02-20T06:12:10.107Z,-0.80
2018-02-20T06:14:37.672Z,-0.80
2018-02-20T06:17:05.330Z,-0.80
2018-02-20T06:19:32.922Z,-0.80
2018-02-20T06:22:00.507Z,-0.80
2018-02-20T06:24:28.855Z,-0.80
2018-02-20T06:26:56.422Z,-0.80
2018-02-20T06:29:27.373Z,-0.80
2018-02-20T06:31:54.947Z,-0.80
2018-02-20T06:34:23.301Z,-0.80
2018-02-20T06:36:50.851Z,-0.80
2018-02-20T06:39:18.408Z,-0.80
2018-02-20T06:41:46.019Z,-0.80
2018-02-20T06:44:13.583Z,-0.70
2018-02-20T06:46:41.173Z,-0.70
2018-02-20T06:49:08.728Z,-0.70
2018-02-20T06:51:36.285Z,-0.70
2018-02-20T06:54:03.958Z,-0.70
2018-02-20T06:56:31.578Z,-0.70
2018-02-20T06:58:59.145Z,-0.70
2018-02-20T07:01:27.464Z,-0.60
2018-02-20T07:03:55.024Z,-0.60
2018-02-20T07:06:22.619Z,-0.60
2018-02-20T07:08:50.190Z,-0.50
2018-02-20T07:11:18.555Z,-0.60
2018-02-20T07:13:46.110Z,-0.60
2018-02-20T07:16:13.666Z,-0.60
2018-02-20T07:18:41.260Z,-0.60
2018-02-20T07:21:08.811Z,-0.60
2018-02-20T07:23:37.171Z,-0.70
2018-02-20T07:26:04.721Z,-0.70
2018-02-20T07:28:32.275Z,-0.70
2018-02-20T07:30:59.916Z,-0.60
2018-02-20T07:33:27.473Z,-0.60
2018-02-20T07:35:55.087Z,-0.60
2018-02-20T07:38:23.437Z,-0.60
2018-02-20T07:40:50.975Z,-0.60
2018-02-20T07:43:18.542Z,-0.60
2018-02-20T07:45:46.082Z,-0.50
2018-02-20T07:48:13.656Z,-0.50
2018-02-20T07:50:41.199Z,-0.50
2018-02-20T07:53:08.743Z,-0.40
2018-02-20T07:55:36.331Z,-0.40
2018-02-20T07:58:03.916Z,-0.40
2018-02-20T08:00:31.503Z,-0.50
2018-02-20T08:02:59.060Z,-0.50
2018-02-20T08:05:32.444Z,-0.50
2018-02-20T08:08:00.024Z,-0.40
2018-02-20T08:10:27.585Z,-0.40
2018-02-20T08:12:55.159Z,-0.40
2018-02-20T08:15:23.473Z,-0.40
2018-02-20T08:17:51.051Z,-0.40
2018-02-20T08:20:18.602Z,-0.40
2018-02-20T08:22:46.164Z,-0.30
2018-02-20T08:25:13.739Z,-0.30
2018-02-20T08:27:41.308Z,-0.30
2018-02-20T08:30:08.899Z,-0.30
2018-02-20T08:32:37.218Z,-0.20
2018-02-20T08:35:04.775Z,-0.20
2018-02-20T08:37:32.379Z,-0.10
2018-02-20T08:40:00.712Z,0.00
2018-02-20T08:42:28.325Z,0.00
2018-02-20T08:44:55.866Z,0.10
2018-02-20T08:47:23.416Z,0.20
2018-02-20T08:49:50.992Z,0.20
2018-02-20T08:52:18.548Z,0.20
2018-02-20T08:54:46.130Z,0.30
2018-02-20T08:57:14.449Z,0.40
2018-02-20T08:59:42.004Z,0.40
2018-02-20T09:02:09.575Z,0.50
2018-02-20T09:04:37.121Z,0.60
2018-02-20T09:07:04.700Z,0.60
2018-02-20T09:09:32.255Z,0.70
2018-02-20T09:11:59.850Z,0.80
2018-02-20T09:14:27.440Z,0.80
2018-02-20T09:16:55.755Z,0.80
2018-02-20T09:19:23.339Z,0.80
2018-02-20T09:21:50.887Z,0.80
2018-02-20T09:24:18.435Z,0.90
2018-02-20T09:26:45.998Z,0.90
2018-02-20T09:29:13.539Z,0.90
2018-02-20T09:31:41.114Z,0.90
2018-02-20T09:34:08.663Z,0.90
2018-02-20T09:36:36.206Z,0.90
2018-02-20T09:39:03.786Z,0.90
2018-02-20T09:41:31.335Z,1.00
2018-02-20T09:43:58.915Z,1.00
2018-02-20T09:46:26.460Z,1.00
2018-02-20T09:48:54.004Z,1.00
2018-02-20T09:51:22.351Z,1.10
2018-02-20T09:53:49.895Z,1.10
2018-02-20T09:56:17.468Z,1.10
2018-02-20T09:58:45.016Z,1.00
2018-02-20T10:01:12.560Z,1.10
2018-02-20T10:03:40.126Z,1.10
2018-02-20T10:06:07.670Z,1.10
2018-02-20T10:08:35.238Z,1.10
2018-02-20T10:11:02.784Z,1.10
2018-02-20T10:13:30.335Z,1.10
2018-02-20T10:15:57.915Z,1.10
2018-02-20T10:18:25.459Z,1.20
2018-02-20T10:21:13.241Z,1.20
2018-02-20T10:23:40.809Z,1.30
2018-02-20T10:26:08.361Z,1.30
2018-02-20T10:28:35.936Z,1.30
2018-02-20T10:31:03.479Z,1.40
2018-02-20T10:33:31.064Z,1.30
2018-02-20T10:35:59.389Z,1.30
2018-02-20T10:38:26.959Z,1.30
2018-02-20T10:40:54.527Z,1.40
2018-02-20T10:43:22.082Z,1.50
2018-02-20T10:45:49.668Z,1.60
2018-02-20T10:48:17.247Z,1.70
2018-02-20T10:50:45.554Z,1.60
2018-02-20T10:53:13.134Z,1.50
2018-02-20T10:55:40.683Z,1.60
2018-02-20T10:58:08.251Z,1.70
2018-02-20T11:00:35.807Z,1.80
2018-02-20T11:03:03.355Z,1.80
2018-02-20T11:05:30.931Z,1.90
2018-02-20T11:07:58.507Z,1.90
2018-02-20T11:10:26.078Z,1.90
2018-02-20T11:12:53.633Z,1.90
2018-02-20T11:15:21.186Z,2.00
2018-02-20T11:17:48.774Z,2.00
2018-02-20T11:20:16.320Z,1.90
2018-02-20T11:22:43.900Z,1.90
2018-02-20T11:25:11.440Z,1.70
2018-02-20T11:27:39.024Z,1.70
2018-02-20T11:30:07.373Z,1.70
2018-02-20T11:32:34.928Z,1.70
2018-02-20T11:35:02.511Z,1.80
2018-02-20T11:37:30.064Z,1.80
2018-02-20T11:39:57.621Z,1.80
2018-02-20T11:42:25.190Z,1.90
2018-02-20T11:44:52.748Z,1.80
2018-02-20T11:47:20.335Z,1.90
2018-02-20T11:49:48.651Z,1.90
2018-02-20T11:52:16.195Z,1.90
2018-02-20T11:54:43.787Z,1.90
2018-02-20T11:57:11.353Z,2.00
2018-02-20T11:59:38.955Z,1.90
2018-02-20T12:02:10.655Z,2.00
2018-02-20T12:04:38.238Z,2.00
2018-02-20T12:07:05.839Z,2.10
2018-02-20T12:09:34.170Z,2.10
2018-02-20T12:12:01.742Z,2.10
2018-02-20T12:14:29.291Z,2.10
2018-02-20T12:16:56.994Z,2.20
2018-02-20T12:19:25.311Z,1.90
2018-02-20T12:21:53.142Z,1.90
2018-02-20T12:24:20.723Z,1.90
2018-02-20T12:26:48.267Z,1.80
2018-02-20T12:29:16.612Z,1.70
2018-02-20T12:31:44.249Z,1.70
2018-02-20T12:34:11.796Z,1.70
2018-02-20T12:36:39.381Z,1.70
2018-02-20T12:39:06.935Z,1.70
2018-02-20T12:41:35.286Z,1.60
2018-02-20T12:44:02.839Z,1.50
2018-02-20T12:46:30.383Z,1.50
2018-02-20T12:48:58.724Z,1.50
2018-02-20T12:51:26.274Z,1.50
2018-02-20T12:53:53.874Z,1.60
2018-02-20T12:56:22.195Z,1.70
2018-02-20T12:58:49.793Z,1.70
2018-02-20T13:01:17.367Z,1.70
2018-02-20T13:03:44.922Z,1.60
2018-02-20T13:06:12.495Z,1.70
2018-02-20T13:08:40.815Z,1.80
2018-02-20T13:11:08.378Z,1.80
2018-02-20T13:13:35.982Z,1.80
2018-02-20T13:16:03.585Z,1.80
2018-02-20T13:18:31.160Z,1.80
2018-02-20T13:20:58.753Z,1.80
2018-02-20T13:23:26.316Z,1.80
2018-02-20T13:25:53.898Z,1.80
2018-02-20T13:28:22.224Z,2.00
2018-02-20T13:30:49.806Z,2.00
2018-02-20T13:33:17.372Z,2.10
2018-02-20T13:35:44.967Z,2.10
2018-02-20T13:38:13.301Z,2.20
2018-02-20T13:40:40.864Z,2.20
2018-02-20T13:43:08.433Z,2.30
2018-02-20T13:45:36.004Z,2.30
2018-02-20T13:48:03.571Z,2.40
2018-02-20T13:50:31.136Z,2.40
2018-02-20T13:52:59.459Z,2.40
2018-02-20T13:55:27.031Z,2.40
2018-02-20T13:57:54.576Z,2.30
2018-02-20T14:00:22.116Z,2.20
2018-02-20T14:02:49.704Z,2.10
2018-02-20T14:05:17.267Z,2.10
2018-02-20T14:07:44.838Z,2.20
2018-02-20T14:10:12.428Z,2.20
2018-02-20T14:12:39.970Z,2.20
2018-02-20T14:15:07.536Z,2.20
2018-02-20T14:17:35.091Z,2.10
2018-02-20T14:20:02.666Z,2.00
2018-02-20T14:22:30.231Z,2.00
2018-02-20T14:24:57.775Z,2.00
2018-02-20T14:27:25.338Z,2.00
2018-02-20T14:29:52.888Z,2.00
2018-02-20T14:32:20.471Z,2.00
2018-02-20T14:34:48.013Z,2.00
2018-02-20T14:37:15.550Z,2.10
2018-02-20T14:39:43.118Z,2.00
2018-02-20T14:42:10.705Z,2.00
2018-02-20T14:44:39.071Z,2.10
2018-02-20T14:47:06.631Z,2.10
2018-02-20T14:49:34.213Z,2.10
2018-02-20T14:52:01.794Z,2.10
2018-02-20T14:54:30.100Z,2.10
2018-02-20T14:56:58.293Z,2.00
2018-02-20T14:59:25.838Z,2.10
2018-02-20T15:01:53.380Z,2.10
2018-02-20T15:04:20.960Z,2.00
2018-02-20T15:06:48.498Z,2.00
2018-02-20T15:09:16.069Z,1.90
2018-02-20T15:11:43.613Z,1.80
2018-02-20T15:14:11.168Z,1.70
2018-02-20T15:16:38.744Z,1.60
2018-02-20T15:19:06.290Z,1.50
2018-02-20T15:21:33.873Z,1.40
2018-02-20T15:24:01.410Z,1.30
2018-02-20T15:26:28.949Z,1.30
2018-02-20T15:28:58.366Z,1.30
2018-02-20T15:31:26.680Z,1.10
2018-02-20T15:33:54.347Z,1.10
2018-02-20T15:36:21.883Z,1.10
2018-02-20T15:38:49.442Z,1.00
2018-02-20T15:41:17.013Z,1.00
2018-02-20T15:43:44.564Z,1.00
2018-02-20T15:46:12.131Z,1.00
2018-02-20T15:48:39.679Z,1.00
2018-02-20T15:51:07.254Z,1.00
2018-02-20T15:53:34.824Z,1.00
2018-02-20T15:56:03.124Z,1.00
2018-02-20T15:58:30.698Z,0.90
2018-02-20T16:00:58.251Z,0.90
2018-02-20T16:03:25.835Z,0.90
2018-02-20T16:05:53.403Z,0.80
2018-02-20T16:11:28.569Z,0.70
2018-02-20T16:14:14.988Z,0.70
2018-02-20T16:16:42.577Z,0.70
2018-02-20T16:19:10.155Z,0.60
2018-02-20T16:21:37.693Z,0.60
2018-02-20T16:24:05.271Z,0.60
2018-02-20T16:26:32.814Z,0.60
2018-02-20T16:29:01.166Z,0.50
2018-02-20T16:31:28.706Z,0.50
2018-02-20T16:33:57.026Z,0.50
2018-02-20T16:36:24.618Z,0.50
2018-02-20T16:38:58.350Z,0.50
2018-02-20T16:41:34.457Z,0.40
2018-02-20T16:44:01.999Z,0.40
2018-02-20T16:46:49.567Z,0.50
2018-02-20T16:49:17.123Z,0.40
2018-02-20T16:51:48.678Z,0.40
2018-02-20T16:54:16.234Z,0.40
2018-02-20T16:57:05.406Z,0.30
2018-02-20T16:59:32.947Z,0.30
2018-02-20T17:02:00.527Z,0.30
2018-02-20T17:04:28.088Z,0.30
2018-02-20T17:07:05.457Z,0.20
2018-02-20T17:09:33.034Z,0.20
2018-02-20T17:12:00.602Z,0.20
2018-02-20T17:14:28.191Z,0.20
2018-02-20T17:16:56.510Z,0.10
2018-02-20T17:19:24.084Z,0.10
2018-02-20T17:21:51.639Z,0.00
2018-02-20T17:24:19.192Z,0.00
2018-02-20T17:26:46.779Z,-0.10
2018-02-20T17:29:14.359Z,-0.10
2018-02-20T17:31:42.713Z,-0.10
2018-02-20T17:34:10.273Z,-0.10
2018-02-20T17:36:37.836Z,-0.10
2018-02-20T17:39:05.467Z,-0.20
2018-02-20T17:41:33.862Z,-0.20
2018-02-20T17:44:01.463Z,-0.30
2018-02-20T17:46:29.994Z,-0.30
2018-02-20T17:49:16.136Z,-0.30
2018-02-20T17:51:43.700Z,-0.40
2018-02-20T17:54:11.243Z,-0.50
2018-02-20T17:56:38.815Z,-0.50
2018-02-20T17:59:06.355Z,-0.60
2018-02-20T18:01:33.942Z,-0.70
2018-02-20T18:04:01.503Z,-0.70
2018-02-20T18:06:29.044Z,-0.80
2018-02-20T18:08:56.627Z,-0.80
2018-02-20T18:14:20.700Z,-1.00
2018-02-20T18:16:48.275Z,-1.10
2018-02-20T18:19:16.599Z,-1.10
2018-02-20T18:21:44.175Z,-1.10
2018-02-20T18:24:11.723Z,-1.10
2018-02-20T18:26:39.316Z,-1.10
2018-02-20T18:29:06.886Z,-1.20
2018-02-20T18:31:34.440Z,-1.10
2018-02-20T18:34:02.019Z,-1.10
2018-02-20T18:36:29.583Z,-1.10
2018-02-20T18:38:57.964Z,-1.00
2018-02-20T18:41:26.298Z,-1.00
2018-02-20T18:43:53.858Z,-1.00
2018-02-20T18:46:21.432Z,-1.00
2018-02-20T18:48:49.763Z,-1.00
2018-02-20T18:51:17.342Z,-1.00
2018-02-20T18:53:44.913Z,-1.00
2018-02-20T18:56:12.478Z,-0.90
2018-02-20T18:58:40.080Z,-0.90
2018-02-20T19:01:07.635Z,-0.80
2018-02-20T19:03:35.219Z,-0.80
2018-02-20T19:06:03.545Z,-0.80
2018-02-20T19:08:31.104Z,-0.80
2018-02-20T19:11:00.315Z,-0.80
2018-02-20T19:13:27.876Z,-0.80
2018-02-20T19:15:55.461Z,-0.80
2018-02-20T19:18:24.648Z,-0.90
2018-02-20T19:20:52.247Z,-0.90
2018-02-20T19:23:19.840Z,-1.00
2018-02-20T19:25:47.391Z,-1.00
2018-02-20T19:28:14.978Z,-1.00
2018-02-20T19:30:42.536Z,-1.00
2018-02-20T19:33:10.092Z,-1.00
2018-02-20T19:35:37.683Z,-1.00
2018-02-20T19:38:05.247Z,-1.00
2018-02-20T19:40:33.606Z,-1.00
2018-02-20T19:43:04.919Z,-1.00
2018-02-20T19:45:32.474Z,-1.00
2018-02-20T19:48:00.103Z,-1.00
2018-02-20T19:50:28.448Z,-0.90
2018-02-20T19:52:56.030Z,-0.90
2018-02-20T19:55:23.595Z,-0.90
2018-02-20T19:57:51.932Z,-0.90
2018-02-20T20:00:19.558Z,-0.90
2018-02-20T20:02:48.754Z,-0.80
2018-02-20T20:05:16.347Z,-0.90
2018-02-20T20:07:43.908Z,-0.80
2018-02-20T20:10:11.467Z,-0.90
2018-02-20T20:12:39.068Z,-0.80
2018-02-20T20:15:06.627Z,-0.80
2018-02-20T20:17:44.488Z,-0.80
2018-02-20T20:20:12.050Z,-0.70
2018-02-20T20:22:39.613Z,-0.70
2018-02-20T20:25:07.198Z,-0.70
2018-02-20T20:27:34.763Z,-0.70
2018-02-20T20:30:02.357Z,-0.70
2018-02-20T20:32:30.685Z,-0.70
2018-02-20T20:34:58.631Z,-0.80
2018-02-20T20:37:26.196Z,-0.80
2018-02-20T20:40:10.994Z,-0.80
2018-02-20T20:42:38.574Z,-0.80
2018-02-20T20:45:06.902Z,-0.80
2018-02-20T20:47:34.459Z,-0.80
2018-02-20T20:50:02.056Z,-0.80
2018-02-20T20:52:29.610Z,-0.80
2018-02-20T20:54:58.720Z,-0.80
2018-02-20T20:57:26.279Z,-0.80
2018-02-20T20:59:58.380Z,-0.80
2018-02-20T21:02:25.945Z,-0.80
2018-02-20T21:04:53.534Z,-0.80
2018-02-20T21:07:21.115Z,-0.80
2018-02-20T21:09:49.037Z,-0.80
2018-02-20T21:12:17.380Z,-0.80
2018-02-20T21:14:44.931Z,-0.80
2018-02-20T21:17:12.564Z,-0.80
2018-02-20T21:19:40.144Z,-0.90
2018-02-20T21:22:07.691Z,-0.90
2018-02-20T21:24:35.288Z,-1.00
2018-02-20T21:27:15.726Z,-0.90
2018-02-20T21:29:43.313Z,-1.00
2018-02-20T21:32:10.878Z,-1.00
2018-02-20T21:34:39.207Z,-1.10
2018-02-20T21:37:06.788Z,-1.10
2018-02-20T21:39:34.348Z,-1.10
2018-02-20T21:42:01.946Z,-1.10
2018-02-20T21:44:30.290Z,-1.10
2018-02-20T21:46:57.851Z,-1.10
2018-02-20T21:49:25.459Z,-1.10
2018-02-20T21:51:53.026Z,-1.20
2018-02-20T21:54:20.610Z,-1.20
2018-02-20T21:56:48.179Z,-1.30
2018-02-20T21:59:15.743Z,-1.30
2018-02-20T22:01:43.318Z,-1.40
2018-02-20T22:04:10.872Z,-1.40
2018-02-20T22:06:38.454Z,-1.40
2018-02-20T22:09:16.576Z,-1.30
2018-02-20T22:11:44.941Z,-1.30
2018-02-20T22:14:12.487Z,-1.30
2018-02-20T22:16:40.055Z,-1.30
2018-02-20T22:19:09.630Z,-1.20
2018-02-20T22:21:37.190Z,-1.20
2018-02-20T22:24:04.772Z,-1.20
2018-02-20T22:26:32.367Z,-1.20
2018-02-20T22:29:00.689Z,-1.20
2018-02-20T22:31:28.270Z,-1.20
2018-02-20T22:33:55.840Z,-1.20
2018-02-20T22:36:23.423Z,-1.30
2018-02-20T22:38:51.748Z,-1.20
2018-02-20T22:41:19.344Z,-1.20
2018-02-20T22:43:46.924Z,-1.20
2018-02-20T22:46:15.255Z,-1.20
2018-02-20T22:48:42.832Z,-1.30
2018-02-20T22:51:10.397Z,-1.30
2018-02-20T22:53:37.947Z,-1.30
2018-02-20T22:56:05.551Z,-1.30
2018-02-20T23:01:31.138Z,-1.20
2018-02-20T23:03:58.699Z,-1.30
2018-02-20T23:06:26.256Z,-1.20
2018-02-20T23:08:53.914Z,-1.20
2018-02-20T23:11:33.389Z,-1.10
2018-02-20T23:14:01.749Z,-1.10
2018-02-20T23:16:29.316Z,-1.10
2018-02-20T23:18:56.880Z,-1.10
2018-02-20T23:21:24.483Z,-1.10
2018-02-20T23:23:52.047Z,-1.10
2018-02-20T23:26:19.627Z,-1.10
2018-02-20T23:28:47.206Z,-1.10
2018-02-20T23:31:14.755Z,-1.10
2018-02-20T23:33:45.779Z,-1.10
2018-02-20T23:36:13.362Z,-1.10
2018-02-20T23:38:40.935Z,-1.10
2018-02-20T23:41:08.500Z,-1.20
2018-02-20T23:43:36.093Z,-1.20
2018-02-20T23:46:04.415Z,-1.10
2018-02-20T23:48:31.976Z,-1.20
2018-02-20T23:51:05.110Z,-1.20
2018-02-20T23:53:33.434Z,-1.20
2018-02-20T23:56:00.994Z,-1.20
2018-02-20T23:58:28.584Z,-1.20
